createdAt,value
2022-08-07T00:02:35.118Z,0.85
2022-08-07T00:04:09.540Z,0.95
2022-08-07T00:06:41.015Z,1.17
2022-08-07T00:09:20.855Z,0.93
2022-08-07T00:11:55.390Z,0.95
2022-08-07T00:14:31.066Z,1.00
2022-08-07T00:17:02.075Z,0.82
2022-08-07T00:19:59.917Z,1.02
2022-08-07T00:22:24.705Z,1.00
2022-08-07T00:25:16.501Z,0.75
2022-08-07T00:27:52.779Z,0.77
2022-08-07T00:30:27.506Z,1.13
2022-08-07T00:33:03.759Z,1.08
2022-08-07T00:35:31.391Z,0.80
2022-08-07T00:38:02.686Z,1.10
2022-08-07T00:40:39.425Z,1.30
2022-08-07T00:44:00.888Z,1.45
2022-08-07T00:46:02.271Z,1.30
2022-08-07T00:48:31.932Z,1.10
2022-08-07T00:51:01.058Z,0.90
2022-08-07T00:53:38.888Z,1.30
2022-08-07T00:56:16.196Z,1.00
2022-08-07T00:58:47.276Z,0.90
2022-08-07T01:01:18.314Z,0.98
2022-08-07T01:03:55.928Z,1.13
2022-08-07T01:06:28.764Z,1.35
2022-08-07T01:08:58.638Z,0.90
2022-08-07T01:12:09.037Z,1.38
2022-08-07T01:14:28.427Z,0.93
2022-08-07T01:16:57.664Z,1.10
2022-08-07T01:19:32.407Z,1.23
2022-08-07T01:22:03.279Z,1.30
2022-08-07T01:24:39.616Z,0.98
2022-08-07T01:27:19.936Z,0.98
2022-08-07T01:29:48.657Z,0.77
2022-08-07T01:32:19.109Z,1.20
2022-08-07T01:34:51.156Z,1.40
2022-08-07T01:37:19.263Z,1.23
2022-08-07T01:39:49.219Z,0.90
2022-08-07T01:42:40.263Z,1.17
2022-08-07T01:45:22.967Z,1.20
2022-08-07T01:48:19.445Z,0.98
2022-08-07T01:50:55.549Z,1.10
2022-08-07T01:54:08.969Z,1.17
2022-08-07T01:56:23.361Z,1.00
2022-08-07T01:59:30.824Z,1.20
2022-08-07T02:02:32.766Z,1.48
2022-08-07T02:05:06.227Z,1.48
2022-08-07T02:07:50.346Z,1.27
2022-08-07T02:10:31.708Z,0.93
2022-08-07T02:13:02.133Z,1.17
2022-08-07T02:15:38.888Z,1.50
2022-08-07T02:18:10.461Z,1.38
2022-08-07T02:20:41.751Z,1.20
2022-08-07T02:23:20.091Z,1.27
2022-08-07T02:26:31.855Z,1.00
2022-08-07T02:28:45.130Z,1.45
2022-08-07T02:31:28.309Z,1.00
2022-08-07T02:34:03.073Z,0.88
2022-08-07T02:36:36.707Z,1.17
2022-08-07T02:39:16.995Z,1.17
2022-08-07T02:42:01.046Z,1.20
2022-08-07T02:44:34.273Z,0.90
2022-08-07T02:47:06.817Z,1.30
2022-08-07T02:49:57.585Z,1.30
2022-08-07T02:52:32.703Z,1.05
2022-08-07T02:55:27.395Z,1.10
2022-08-07T02:57:59.889Z,0.80
2022-08-07T03:00:30.234Z,1.05
2022-08-07T03:02:59.820Z,1.00
2022-08-07T03:05:37.108Z,0.90
2022-08-07T03:08:10.056Z,0.60
2022-08-07T03:10:46.964Z,0.85
2022-08-07T03:13:20.264Z,1.10
2022-08-07T03:15:56.445Z,0.80
2022-08-07T03:18:35.036Z,1.15
2022-08-07T03:21:08.603Z,0.93
2022-08-07T03:24:19.661Z,1.45
2022-08-07T03:26:33.788Z,1.10
2022-08-07T03:29:10.469Z,0.82
2022-08-07T03:31:46.439Z,0.70
2022-08-07T03:34:22.540Z,0.63
2022-08-07T03:36:58.065Z,0.73
2022-08-07T03:39:58.882Z,1.15
2022-08-07T03:42:17.517Z,0.70
2022-08-07T03:44:47.174Z,0.93
2022-08-07T03:47:22.752Z,0.82
2022-08-07T03:49:52.401Z,1.65
2022-08-07T03:52:27.155Z,1.02
2022-08-07T03:55:07.405Z,0.73
2022-08-07T03:58:34.862Z,0.73
2022-08-07T04:00:33.842Z,0.60
2022-08-07T04:03:03.846Z,0.90
2022-08-07T04:05:41.137Z,0.88
2022-08-07T04:08:24.106Z,0.70
2022-08-07T04:10:54.686Z,0.70
2022-08-07T04:14:09.211Z,0.60
2022-08-07T04:16:32.573Z,0.68
2022-08-07T04:19:04.217Z,0.70
2022-08-07T04:21:47.933Z,0.65
2022-08-07T04:24:33.799Z,0.50
2022-08-07T04:27:15.238Z,0.50
2022-08-07T04:30:01.181Z,0.60
2022-08-07T04:32:47.941Z,0.70
2022-08-07T04:35:21.496Z,0.60
2022-08-07T04:38:02.934Z,0.70
2022-08-07T04:43:02.278Z,0.68
2022-08-07T04:45:58.057Z,0.57
2022-08-07T04:48:44.604Z,0.45
2022-08-07T04:51:37.723Z,0.70
2022-08-07T04:54:30.152Z,0.60
2022-08-07T04:58:11.260Z,0.40
2022-08-07T05:00:30.246Z,0.30
2022-08-07T05:03:31.156Z,0.47
2022-08-07T05:06:51.674Z,0.38
2022-08-07T05:09:45.476Z,0.52
2022-08-07T05:12:30.463Z,0.60
2022-08-07T05:15:23.575Z,0.40
2022-08-07T05:18:08.556Z,0.77
2022-08-07T05:20:43.956Z,0.40
2022-08-07T05:23:23.233Z,0.60
2022-08-07T05:26:13.307Z,0.50
2022-08-07T05:28:51.413Z,0.40
2022-08-07T05:31:35.067Z,0.73
2022-08-07T05:34:12.221Z,0.40
2022-08-07T05:36:52.571Z,0.90
2022-08-07T05:40:17.326Z,1.38
2022-08-07T05:42:33.827Z,0.77
2022-08-07T05:45:25.794Z,0.90
2022-08-07T05:48:02.737Z,0.40
2022-08-07T05:50:44.095Z,0.50
2022-08-07T05:54:09.238Z,0.52
2022-08-07T05:56:07.185Z,0.40
2022-08-07T05:58:41.483Z,0.50
2022-08-07T06:01:22.252Z,0.60
2022-08-07T06:03:58.611Z,0.47
2022-08-07T06:06:35.187Z,0.75
2022-08-07T06:09:06.218Z,0.50
2022-08-07T06:11:38.255Z,0.50
2022-08-07T06:14:11.953Z,0.50
2022-08-07T06:16:50.356Z,0.40
2022-08-07T06:19:47.484Z,0.40
2022-08-07T06:22:23.280Z,0.50
2022-08-07T06:25:06.581Z,0.50
2022-08-07T06:28:00.154Z,0.60
2022-08-07T06:30:35.530Z,0.50
2022-08-07T06:33:16.056Z,0.70
2022-08-07T06:36:12.777Z,0.75
2022-08-07T06:38:58.510Z,0.70
2022-08-07T06:41:58.829Z,0.52
2022-08-07T06:44:21.997Z,0.60
2022-08-07T06:46:53.770Z,0.50
2022-08-07T06:49:51.720Z,0.50
2022-08-07T06:52:35.955Z,0.50
2022-08-07T06:55:31.492Z,0.60
2022-08-07T06:58:06.447Z,0.70
2022-08-07T07:00:45.333Z,0.45
2022-08-07T07:03:13.611Z,0.65
2022-08-07T07:06:04.395Z,0.63
2022-08-07T07:08:31.033Z,0.50
2022-08-07T07:11:14.500Z,0.90
2022-08-07T07:13:58.600Z,0.60
2022-08-07T07:16:45.391Z,0.50
2022-08-07T07:19:57.263Z,0.63
2022-08-07T07:22:35.871Z,0.60
2022-08-07T07:25:13.955Z,0.85
2022-08-07T07:28:02.666Z,0.70
2022-08-07T07:30:38.607Z,0.57
2022-08-07T07:33:11.676Z,0.50
2022-08-07T07:36:04.568Z,0.43
2022-08-07T07:38:35.797Z,0.68
2022-08-07T07:41:08.918Z,0.55
2022-08-07T07:44:13.920Z,0.65
2022-08-07T07:46:49.916Z,0.70
2022-08-07T07:50:33.101Z,0.50
2022-08-07T07:52:10.112Z,0.63
2022-08-07T07:54:39.980Z,0.40
2022-08-07T07:57:52.606Z,0.60
2022-08-07T08:00:10.213Z,0.60
2022-08-07T08:03:04.869Z,0.50
2022-08-07T08:05:50.821Z,0.60
2022-08-07T08:08:34.887Z,0.50
2022-08-07T08:11:16.191Z,0.55
2022-08-07T08:13:54.905Z,0.55
2022-08-07T08:18:36.859Z,0.32
2022-08-07T08:20:18.824Z,0.88
2022-08-07T08:22:55.665Z,0.40
2022-08-07T08:25:48.981Z,0.45
2022-08-07T08:28:24.013Z,0.60
2022-08-07T08:31:14.901Z,0.40
2022-08-07T08:33:49.807Z,0.30
2022-08-07T08:36:25.385Z,0.30
2022-08-07T08:38:56.658Z,0.45
2022-08-07T08:41:31.497Z,0.40
2022-08-07T08:44:29.398Z,0.30
2022-08-07T08:47:09.935Z,0.38
2022-08-07T08:50:05.503Z,0.40
2022-08-07T08:52:40.941Z,0.40
2022-08-07T08:55:55.079Z,0.40
2022-08-07T08:58:33.918Z,0.30
2022-08-07T09:01:29.547Z,0.45
2022-08-07T09:04:08.597Z,0.45
2022-08-07T09:07:04.052Z,0.43
2022-08-07T09:09:56.537Z,0.50
2022-08-07T09:13:07.216Z,0.30
2022-08-07T09:16:25.762Z,0.30
2022-08-07T09:18:41.690Z,0.50
2022-08-07T09:22:22.686Z,0.50
2022-08-07T09:24:59.112Z,0.40
2022-08-07T09:27:59.753Z,0.73
2022-08-07T09:30:54.886Z,0.30
2022-08-07T09:33:57.620Z,0.50
2022-08-07T09:36:36.899Z,0.30
2022-08-07T09:39:54.304Z,0.43
2022-08-07T09:42:17.222Z,0.30
2022-08-07T09:47:26.354Z,0.38
2022-08-07T09:48:30.032Z,0.30
2022-08-07T09:52:16.539Z,0.40
2022-08-07T09:54:30.611Z,0.40
2022-08-07T09:57:16.672Z,0.60
2022-08-07T10:00:08.823Z,0.55
2022-08-07T10:02:57.004Z,0.32
2022-08-07T10:06:00.711Z,0.40
2022-08-07T10:08:44.838Z,0.50
2022-08-07T10:12:01.331Z,0.40
2022-08-07T10:14:42.064Z,0.47
2022-08-07T10:18:00.291Z,0.40
2022-08-07T10:20:35.964Z,0.40
2022-08-07T10:23:10.760Z,0.68
2022-08-07T10:25:47.300Z,0.30
2022-08-07T10:31:54.805Z,0.40
2022-08-07T10:35:01.892Z,0.47
2022-08-07T10:38:09.652Z,0.80
2022-08-07T10:40:52.203Z,0.60
2022-08-07T10:43:34.181Z,0.60
2022-08-07T10:46:09.714Z,0.40
2022-08-07T10:48:48.894Z,0.57
2022-08-07T10:51:39.188Z,0.50
2022-08-07T10:54:15.654Z,0.50
2022-08-07T10:56:57.583Z,0.60
2022-08-07T10:59:47.564Z,0.75
2022-08-07T11:02:49.347Z,0.60
2022-08-07T11:05:49.198Z,0.93
2022-08-07T11:08:42.528Z,0.65
2022-08-07T11:11:30.053Z,0.75
2022-08-07T11:14:43.880Z,0.60
2022-08-07T11:17:23.335Z,0.60
2022-08-07T11:20:11.438Z,0.50
2022-08-07T11:23:10.903Z,0.40
2022-08-07T11:26:06.404Z,0.60
2022-08-07T11:28:43.582Z,0.70
2022-08-07T11:31:47.116Z,0.50
2022-08-07T11:34:20.224Z,0.70
2022-08-07T11:37:11.767Z,0.47
2022-08-07T11:40:01.088Z,0.50
2022-08-07T11:42:57.841Z,0.63
2022-08-07T11:45:36.417Z,0.50
2022-08-07T11:48:35.543Z,0.50
2022-08-07T11:51:44.771Z,0.60
2022-08-07T11:54:18.706Z,0.57
2022-08-07T11:57:16.699Z,0.80
2022-08-07T12:00:11.341Z,0.60
2022-08-07T12:03:41.482Z,0.70
2022-08-07T12:06:37.102Z,0.73
2022-08-07T12:09:23.192Z,0.60
2022-08-07T12:12:09.094Z,0.85
2022-08-07T12:15:03.676Z,0.73
2022-08-07T12:17:59.422Z,0.98
2022-08-07T12:20:41.780Z,0.70
2022-08-07T12:24:05.590Z,0.63
2022-08-07T12:26:29.968Z,0.65
2022-08-07T12:29:08.784Z,0.90
2022-08-07T12:32:01.441Z,0.65
2022-08-07T12:34:33.729Z,0.70
2022-08-07T12:37:08.692Z,1.17
2022-08-07T12:39:50.616Z,1.20
2022-08-07T12:42:32.083Z,0.95
2022-08-07T12:45:05.862Z,0.95
2022-08-07T12:47:55.606Z,0.80
2022-08-07T12:50:50.739Z,0.80
2022-08-07T12:53:21.991Z,1.00
2022-08-07T12:56:09.100Z,0.90
2022-08-07T12:58:40.525Z,0.80
2022-08-07T13:01:32.363Z,1.10
2022-08-07T13:04:32.652Z,0.80
2022-08-07T13:08:13.877Z,0.65
2022-08-07T13:10:51.671Z,0.80
2022-08-07T13:13:46.790Z,0.80
2022-08-07T13:16:39.786Z,0.60
2022-08-07T13:19:50.413Z,0.70
2022-08-07T13:22:41.352Z,1.05
2022-08-07T13:25:24.182Z,0.95
2022-08-07T13:28:14.389Z,0.90
2022-08-07T13:31:01.526Z,0.88
2022-08-07T13:34:31.693Z,1.08
2022-08-07T13:36:58.306Z,1.00
2022-08-07T13:40:32.929Z,0.90
2022-08-07T13:42:25.939Z,1.55
2022-08-07T13:44:55.429Z,1.25
2022-08-07T13:48:08.215Z,1.13
2022-08-07T13:50:44.821Z,0.88
2022-08-07T13:53:35.961Z,0.85
2022-08-07T13:56:35.624Z,1.10
2022-08-07T13:59:15.957Z,1.15
2022-08-07T14:02:12.629Z,1.60
2022-08-07T14:05:04.333Z,1.80
2022-08-07T14:08:00.434Z,1.80
2022-08-07T14:10:42.484Z,1.70
2022-08-07T14:13:18.920Z,2.03
2022-08-07T14:16:16.063Z,1.60
2022-08-07T14:18:57.149Z,1.42
2022-08-07T14:22:02.933Z,1.20
2022-08-07T14:24:45.907Z,1.50
2022-08-07T14:28:12.597Z,1.65
2022-08-07T14:30:11.244Z,1.50
2022-08-07T14:32:48.559Z,1.90
2022-08-07T14:35:44.607Z,1.50
2022-08-07T14:38:26.770Z,1.73
2022-08-07T14:41:33.802Z,2.08
2022-08-07T14:44:18.085Z,1.90
2022-08-07T14:46:51.862Z,1.77
2022-08-07T14:49:57.337Z,2.28
2022-08-07T14:52:27.727Z,2.38
2022-08-07T14:57:58.326Z,2.90
2022-08-07T15:00:42.447Z,2.15
2022-08-07T15:03:19.371Z,2.67
2022-08-07T15:05:55.284Z,2.53
2022-08-07T15:08:47.482Z,2.65
2022-08-07T15:11:50.814Z,2.85
2022-08-07T15:14:10.724Z,2.80
2022-08-07T15:16:54.902Z,2.55
2022-08-07T15:22:29.271Z,2.72
2022-08-07T15:25:16.808Z,2.75
2022-08-07T15:28:33.125Z,2.28
2022-08-07T15:33:33.693Z,2.20
2022-08-07T15:36:05.195Z,2.25
2022-08-07T15:42:44.235Z,2.15
2022-08-07T15:44:17.420Z,2.65
2022-08-07T15:50:04.972Z,2.30
2022-08-07T15:52:30.730Z,2.58
2022-08-07T15:55:02.878Z,1.98
2022-08-07T15:57:48.155Z,1.70
2022-08-07T16:00:31.748Z,2.30
2022-08-07T16:03:20.866Z,2.08
2022-08-07T16:05:52.735Z,1.80
2022-08-07T16:08:33.590Z,2.17
2022-08-07T16:11:28.818Z,1.98
2022-08-07T16:14:22.392Z,1.70
2022-08-07T16:16:57.536Z,1.85
2022-08-07T16:19:43.150Z,1.65
2022-08-07T16:22:37.780Z,1.58
2022-08-07T16:25:27.720Z,1.73
2022-08-07T16:29:18.742Z,2.00
2022-08-07T16:34:51.432Z,1.65
2022-08-07T16:38:03.787Z,2.00
2022-08-07T16:41:11.060Z,1.95
2022-08-07T16:44:05.973Z,1.80
2022-08-07T16:47:15.882Z,2.20
2022-08-07T16:50:35.567Z,1.80
2022-08-07T16:54:02.871Z,1.80
2022-08-07T16:56:20.486Z,1.70
2022-08-07T16:59:10.838Z,2.00
2022-08-07T17:01:57.457Z,1.90
2022-08-07T17:04:57.451Z,2.13
2022-08-07T17:07:51.517Z,2.38
2022-08-07T17:10:54.362Z,1.90
2022-08-07T17:13:38.924Z,2.15
2022-08-07T17:16:55.898Z,1.65
2022-08-07T17:20:00.785Z,1.27
2022-08-07T17:22:42.553Z,1.48
2022-08-07T17:25:20.287Z,1.20
2022-08-07T17:28:19.501Z,1.30
2022-08-07T17:30:58.435Z,1.58
2022-08-07T17:34:09.670Z,1.05
2022-08-07T17:36:29.025Z,1.15
2022-08-07T17:39:25.240Z,1.05
2022-08-07T17:42:59.173Z,1.20
2022-08-07T17:45:34.892Z,0.82
2022-08-07T17:48:06.962Z,0.80
2022-08-07T17:50:46.987Z,1.20
2022-08-07T17:54:00.772Z,1.42
2022-08-07T17:56:49.922Z,1.23
2022-08-07T17:59:52.298Z,1.00
2022-08-07T18:02:28.268Z,1.00
2022-08-07T18:05:21.681Z,1.20
2022-08-07T18:08:16.383Z,0.98
2022-08-07T18:12:08.088Z,0.88
2022-08-07T18:14:01.589Z,1.10
2022-08-07T18:16:58.741Z,0.85
2022-08-07T18:21:08.514Z,0.70
2022-08-07T18:22:49.034Z,0.60
2022-08-07T18:25:40.441Z,0.50
2022-08-07T18:28:57.910Z,0.57
2022-08-07T18:31:38.681Z,0.80
2022-08-07T18:35:00.729Z,0.80
2022-08-07T18:38:58.987Z,0.60
2022-08-07T18:40:57.685Z,0.70
2022-08-07T18:43:57.663Z,0.60
2022-08-07T18:47:00.014Z,0.40
2022-08-07T18:50:32.559Z,0.43
2022-08-07T18:53:05.990Z,0.57
2022-08-07T18:55:42.331Z,0.70
2022-08-07T18:58:43.990Z,0.50
2022-08-07T19:02:18.066Z,0.40
2022-08-07T19:04:13.217Z,0.30
2022-08-07T19:06:56.185Z,0.30
2022-08-07T19:09:57.037Z,0.50
2022-08-07T19:12:21.209Z,0.50
2022-08-07T19:16:04.462Z,0.35
2022-08-07T19:18:34.787Z,0.40
2022-08-07T19:21:43.931Z,0.52
2022-08-07T19:24:31.011Z,0.70
2022-08-07T19:28:30.006Z,0.45
2022-08-07T19:31:04.152Z,0.53
2022-08-07T19:32:59.817Z,0.40
2022-08-07T19:35:33.101Z,0.30
2022-08-07T19:38:17.134Z,0.40
2022-08-07T19:40:50.545Z,0.30
2022-08-07T19:43:44.092Z,0.40
2022-08-07T19:46:29.145Z,0.32
2022-08-07T19:49:03.623Z,0.40
2022-08-07T19:51:52.184Z,0.22
2022-08-07T19:54:35.607Z,0.28
2022-08-07T19:58:02.404Z,0.47
2022-08-07T20:00:28.535Z,0.30
2022-08-07T20:03:34.092Z,0.30
2022-08-07T20:06:05.504Z,0.30
2022-08-07T20:08:37.858Z,0.30
2022-08-07T20:11:15.258Z,0.40
2022-08-07T20:14:03.791Z,0.30
2022-08-07T20:16:36.997Z,0.40
2022-08-07T20:19:12.015Z,0.50
2022-08-07T20:21:47.208Z,0.38
2022-08-07T20:24:28.644Z,0.50
2022-08-07T20:27:02.463Z,0.28
2022-08-07T20:29:48.338Z,0.30
2022-08-07T20:32:38.965Z,0.35
2022-08-07T20:35:16.017Z,0.30
2022-08-07T20:37:59.195Z,0.40
2022-08-07T20:40:34.601Z,0.20
2022-08-07T20:43:14.659Z,0.28
2022-08-07T20:46:26.125Z,0.38
2022-08-07T20:49:54.616Z,0.30
2022-08-07T20:51:36.056Z,0.40
2022-08-07T20:54:15.205Z,0.30
2022-08-07T20:57:04.053Z,0.28
2022-08-07T21:00:08.381Z,0.30
2022-08-07T21:02:54.108Z,0.30
2022-08-07T21:05:54.630Z,0.30
2022-08-07T21:08:38.112Z,0.30
2022-08-07T21:11:14.489Z,0.40
2022-08-07T21:14:16.195Z,0.50
2022-08-07T21:16:56.110Z,0.50
2022-08-07T21:19:51.821Z,0.30
2022-08-07T21:22:28.433Z,0.35
2022-08-07T21:25:12.066Z,0.35
2022-08-07T21:27:46.821Z,0.30
2022-08-07T21:30:19.690Z,0.30
2022-08-07T21:32:52.860Z,0.20
2022-08-07T21:35:34.988Z,0.40
2022-08-07T21:38:30.628Z,0.38
2022-08-07T21:41:20.121Z,0.35
2022-08-07T21:44:28.591Z,0.30
2022-08-07T21:47:12.343Z,0.30
2022-08-07T21:53:00.255Z,0.50
2022-08-07T21:56:03.292Z,0.30
2022-08-07T21:58:33.544Z,0.38
2022-08-07T22:01:14.038Z,0.43
2022-08-07T22:03:49.411Z,0.38
2022-08-07T22:06:30.761Z,0.30
2022-08-07T22:09:08.145Z,0.28
2022-08-07T22:12:05.544Z,0.30
2022-08-07T22:15:03.435Z,0.30
2022-08-07T22:17:57.789Z,0.25
2022-08-07T22:20:46.885Z,0.30
2022-08-07T22:23:23.169Z,0.20
2022-08-07T22:26:05.798Z,0.50
2022-08-07T22:28:39.795Z,0.30
2022-08-07T22:32:00.204Z,0.20
2022-08-07T22:34:57.034Z,0.20
2022-08-07T22:38:01.833Z,0.30
2022-08-07T22:40:41.145Z,0.30
2022-08-07T22:43:09.766Z,0.20
2022-08-07T22:46:47.136Z,0.55
2022-08-07T22:49:02.330Z,0.25
2022-08-07T22:51:52.050Z,0.40
2022-08-07T22:55:17.379Z,0.20
2022-08-07T22:58:01.677Z,0.20
2022-08-07T23:00:40.940Z,0.30
2022-08-07T23:03:57.486Z,0.37
2022-08-07T23:06:39.547Z,0.17
2022-08-07T23:10:03.734Z,0.20
2022-08-07T23:12:52.457Z,0.30
2022-08-07T23:16:06.315Z,0.30
2022-08-07T23:19:14.812Z,0.28
2022-08-07T23:22:19.421Z,0.30
2022-08-07T23:25:00.513Z,0.32
2022-08-07T23:28:22.718Z,0.40
2022-08-07T23:31:05.900Z,0.60
2022-08-07T23:34:36.922Z,0.27
2022-08-07T23:37:18.671Z,0.30
2022-08-07T23:39:59.984Z,0.20
2022-08-07T23:42:53.441Z,0.20
2022-08-07T23:46:02.461Z,0.20
2022-08-07T23:48:58.767Z,0.17
2022-08-07T23:54:46.484Z,0.30
2022-08-07T23:57:37.226Z,0.20
